This is the latest recevied weather packets stored in our database for station/object DC4THF-13. If no packets are shown the sender has not sent any weather packets the latest 10 day(s).
| Time | Temp. | Humidity | Pressure | Rain* | Wind** | Luminosity | Snow |
|---|---|---|---|---|---|---|---|
| 1777890748 | 24.44° C | 41% | 1006.2 hPa | 0 mm | - | - | - |
| 1777890144 | 24.44° C | 42% | 1006.4 hPa | 0 mm | - | - | - |
| 1777889541 | 23.33° C | 43% | 1006.5 hPa | 0 mm | - | - | - |
| 1777888938 | 23.33° C | 43% | 1006.6 hPa | 0 mm | - | - | - |
| 1777888335 | 22.22° C | 49% | 1006.6 hPa | 0 mm | - | - | - |
| 1777887792 | 22.78° C | 45% | 1006.7 hPa | 0 mm | - | - | - |
| 1777887189 | 23.33° C | 42% | 1006.9 hPa | 0 mm | - | - | - |
| 1777886585 | 23.33° C | 43% | 1007 hPa | 0 mm | - | - | - |
| 1777885982 | 22.78° C | 43% | 1007 hPa | 0 mm | - | - | - |
| 1777885379 | 23.33° C | 43% | 1007.2 hPa | 0 mm | - | - | - |
| 1777884776 | 22.22° C | 48% | 1007.2 hPa | 0 mm | - | - | - |
| 1777884173 | 20.56° C | 50% | 1007.3 hPa | 0 mm | - | - | - |
| 1777883569 | 20.56° C | 50% | 1007.2 hPa | 0 mm | - | - | - |
| 1777882966 | 21.11° C | 50% | 1007.1 hPa | 0 mm | - | - | - |
| 1777882363 | 21.67° C | 49% | 1007 hPa | 0 mm | - | - | - |
| 1777881760 | 22.22° C | 50% | 1007 hPa | 0 mm | - | - | - |
| 1777881156 | 21.67° C | 50% | 1007.1 hPa | 0 mm | - | - | - |
| 1777880553 | 21.67° C | 50% | 1007.1 hPa | 0 mm | - | - | - |
| 1777879950 | 21.67° C | 51% | 1007 hPa | 0 mm | - | - | - |
| 1777879347 | 21.11° C | 51% | 1007.1 hPa | 0 mm | - | - | - |
| 1777878744 | 21.67° C | 51% | 1007 hPa | 0 mm | - | - | - |
| 1777878140 | 20.56° C | 56% | 1007.1 hPa | 0 mm | - | - | - |
| 1777877537 | 18.89° C | 60% | 1007 hPa | 0 mm | - | - | - |
| 1777876994 | 17.78° C | 60% | 1007.1 hPa | 0 mm | - | - | - |
| 1777876391 | 17.78° C | 61% | 1007.1 hPa | 0 mm | - | - | - |
* Rain latest hour (hover to see other rain measurements)
** Current wind speed in m/s (hover to see current wind gust speed)